createdAt,value
2023-03-16T00:00:50.690Z,-2.18
2023-03-16T00:05:56.288Z,-2.19
2023-03-16T00:11:00.574Z,-2.15
2023-03-16T00:16:05.812Z,-2.01
2023-03-16T00:21:10.569Z,-1.89
2023-03-16T00:26:15.349Z,-1.92
2023-03-16T00:31:20.618Z,-1.99
2023-03-16T00:36:24.870Z,-2.06
2023-03-16T00:41:29.274Z,-2.10
2023-03-16T00:46:34.648Z,-2.11
2023-03-16T06:59:59.952Z,0.52
2023-03-16T07:05:05.931Z,0.67
2023-03-16T07:10:17.678Z,0.75
2023-03-16T07:15:22.299Z,0.81
2023-03-16T07:20:29.371Z,0.92
2023-03-16T07:25:34.697Z,1.07
2023-03-16T07:30:39.021Z,1.26
2023-03-16T07:35:45.221Z,1.46
2023-03-16T07:40:49.325Z,1.66
2023-03-16T07:45:57.849Z,1.86
2023-03-16T07:51:03.067Z,2.07
2023-03-16T07:56:09.054Z,2.27
2023-03-16T08:01:14.113Z,2.49
2023-03-16T08:06:18.908Z,2.70
2023-03-16T08:11:25.622Z,2.90
2023-03-16T08:16:37.022Z,3.13
2023-03-16T08:22:00.283Z,3.36
2023-03-16T08:27:08.282Z,3.62
2023-03-16T08:32:31.446Z,3.89
2023-03-16T08:37:35.402Z,4.11
2023-03-16T08:42:39.909Z,4.26
2023-03-16T08:47:46.215Z,4.41
2023-03-16T08:52:51.467Z,4.56
2023-03-16T08:57:55.417Z,4.70
2023-03-16T09:03:01.156Z,4.87
2023-03-16T09:08:07.006Z,5.07
2023-03-16T09:13:11.721Z,5.22
2023-03-16T09:18:16.657Z,5.37
2023-03-16T09:23:23.626Z,5.62
2023-03-16T09:28:28.866Z,5.77
2023-03-16T09:33:34.736Z,5.86
2023-03-16T09:38:39.697Z,5.98
2023-03-16T09:43:49.762Z,6.07
2023-03-16T09:48:56.193Z,6.11
2023-03-16T09:54:04.499Z,6.25
2023-03-16T09:59:18.564Z,6.47
2023-03-16T10:04:47.473Z,6.66
2023-03-16T10:10:11.585Z,6.82
2023-03-16T10:15:18.892Z,6.97
2023-03-16T10:20:23.930Z,7.01
2023-03-16T10:25:54.565Z,7.01
2023-03-16T10:31:00.887Z,7.17
2023-03-16T10:36:16.011Z,7.24
2023-03-16T10:41:23.528Z,7.24
2023-03-16T10:46:29.239Z,7.38
2023-03-16T10:51:36.488Z,7.39
2023-03-16T10:56:40.599Z,7.40
2023-03-16T11:01:50.323Z,7.35
2023-03-16T11:06:58.184Z,7.20
2023-03-16T11:12:14.636Z,7.41
2023-03-16T11:17:34.344Z,7.92
2023-03-16T11:22:38.896Z,8.44
2023-03-16T11:28:28.447Z,8.71
2023-03-16T11:33:35.284Z,8.95
2023-03-16T11:38:46.543Z,8.96
2023-03-16T11:43:57.224Z,8.58
2023-03-16T11:49:19.437Z,8.30
2023-03-16T11:54:52.119Z,8.10
2023-03-16T12:00:02.532Z,8.10
2023-03-16T12:05:54.958Z,8.08
2023-03-16T12:11:07.315Z,7.92
2023-03-16T12:16:27.492Z,8.04
2023-03-16T12:21:39.617Z,8.30
2023-03-16T12:26:45.106Z,8.55
2023-03-16T12:32:18.148Z,8.98
2023-03-16T12:37:53.088Z,9.46
2023-03-16T12:43:34.364Z,9.75
2023-03-16T12:48:49.128Z,9.89
2023-03-16T12:53:55.660Z,10.03
2023-03-16T12:59:01.883Z,10.11
2023-03-16T13:04:15.953Z,10.22
2023-03-16T13:09:24.696Z,10.28
2023-03-16T13:14:43.576Z,10.34
2023-03-16T13:20:04.258Z,10.42
2023-03-16T13:25:13.548Z,10.56
2023-03-16T13:30:29.166Z,10.26
2023-03-16T13:35:33.457Z,9.89
2023-03-16T13:40:46.614Z,9.83
2023-03-16T13:45:51.151Z,9.88
2023-03-16T13:51:00.080Z,10.00
2023-03-16T13:56:06.248Z,9.90
2023-03-16T14:01:31.404Z,9.59
2023-03-16T14:06:37.314Z,9.39
2023-03-16T14:11:43.234Z,9.50
2023-03-16T14:16:48.139Z,9.66
2023-03-16T14:21:52.569Z,9.70
2023-03-16T14:26:58.340Z,9.70
2023-03-16T14:32:22.299Z,9.61
2023-03-16T14:37:36.020Z,9.55
2023-03-16T14:42:42.847Z,9.46
2023-03-16T14:47:50.374Z,9.28
2023-03-16T14:52:59.493Z,9.04
2023-03-16T14:58:05.075Z,8.86
2023-03-16T15:03:16.508Z,8.71
2023-03-16T15:08:28.071Z,8.63
2023-03-16T15:13:42.932Z,8.63
2023-03-16T15:18:47.031Z,8.63
2023-03-16T15:23:52.611Z,8.60
2023-03-16T15:28:57.413Z,8.54
2023-03-16T15:34:01.320Z,8.51
2023-03-16T15:39:05.951Z,8.45
2023-03-16T15:44:13.338Z,8.34
2023-03-16T15:49:18.882Z,8.23
2023-03-16T15:54:25.020Z,8.12
2023-03-16T15:59:36.839Z,8.02
2023-03-16T16:04:41.837Z,7.92
2023-03-16T16:09:45.769Z,7.82
2023-03-16T16:14:49.988Z,7.72
2023-03-16T16:19:55.609Z,7.57
2023-03-16T16:24:59.847Z,7.39
2023-03-16T16:30:17.757Z,7.22
2023-03-16T16:35:25.159Z,7.04
2023-03-16T16:40:38.367Z,6.83
2023-03-16T16:45:43.908Z,6.61
2023-03-16T16:50:48.031Z,6.38
2023-03-16T16:55:54.189Z,6.16
2023-03-16T17:00:59.230Z,5.91
2023-03-16T17:06:07.168Z,5.66
2023-03-16T17:11:41.103Z,5.44
2023-03-16T17:16:52.826Z,5.23
2023-03-16T17:21:59.305Z,5.02
2023-03-16T17:27:04.948Z,4.79
2023-03-16T17:32:24.379Z,4.61
2023-03-16T17:37:33.880Z,4.48
2023-03-16T17:42:49.168Z,4.31
2023-03-16T17:47:59.697Z,4.09
2023-03-16T17:53:06.034Z,3.89
2023-03-16T17:58:32.173Z,3.70
2023-03-16T18:03:38.017Z,3.52
2023-03-16T18:13:48.484Z,3.07
2023-03-16T18:18:58.252Z,3.11
2023-03-16T18:24:03.417Z,3.15
2023-03-16T18:29:11.619Z,3.13
2023-03-16T18:34:28.462Z,3.10
2023-03-16T18:39:36.811Z,3.03
2023-03-16T18:44:52.669Z,2.95
2023-03-16T18:49:59.910Z,2.94
2023-03-16T18:55:08.073Z,2.85
2023-03-16T19:00:27.642Z,2.76
2023-03-16T19:05:40.328Z,2.74
2023-03-16T19:10:54.416Z,2.73
2023-03-16T19:16:01.905Z,2.65
2023-03-16T19:21:22.785Z,2.51
2023-03-16T19:26:29.987Z,2.35
2023-03-16T19:31:36.438Z,2.18
2023-03-16T19:36:43.836Z,2.06
2023-03-16T19:41:58.610Z,1.94
2023-03-16T19:47:11.760Z,1.81
2023-03-16T19:52:28.337Z,1.73
2023-03-16T19:57:35.231Z,1.73
2023-03-16T20:02:42.422Z,1.70
2023-03-16T20:07:52.287Z,1.65
2023-03-16T20:13:00.255Z,1.55
2023-03-16T20:18:15.393Z,1.39
2023-03-16T20:23:26.409Z,1.27
2023-03-16T20:28:37.941Z,1.13
2023-03-16T20:33:46.971Z,1.02
2023-03-16T20:38:57.880Z,0.91
2023-03-16T20:44:04.458Z,0.78
2023-03-16T20:49:31.870Z,0.68
2023-03-16T20:54:42.935Z,0.60
2023-03-16T20:59:51.584Z,0.61
2023-03-16T21:04:59.706Z,0.62
2023-03-16T21:10:08.404Z,0.58
2023-03-16T21:15:30.573Z,0.57
2023-03-16T21:20:39.965Z,0.56
2023-03-16T21:25:52.735Z,0.52
2023-03-16T21:30:59.214Z,0.47
2023-03-16T21:36:08.579Z,0.41
2023-03-16T21:41:15.968Z,0.35
2023-03-16T21:46:23.233Z,0.27
2023-03-16T21:51:32.582Z,0.18
2023-03-16T21:56:38.219Z,0.10
2023-03-16T22:01:58.670Z,0.04
2023-03-16T22:07:13.128Z,0.00
2023-03-16T22:12:19.386Z,-0.03
2023-03-16T22:17:23.776Z,-0.09
2023-03-16T22:22:31.724Z,-0.15
2023-03-16T22:27:36.681Z,-0.16
2023-03-16T22:32:42.129Z,-0.20
2023-03-16T22:37:51.178Z,-0.25
2023-03-16T22:42:56.762Z,-0.30
2023-03-16T22:48:05.978Z,-0.32
2023-03-16T22:53:14.736Z,-0.31
2023-03-16T22:58:47.972Z,-0.34
2023-03-16T23:03:54.102Z,-0.37
2023-03-16T23:08:59.708Z,-0.41
2023-03-16T23:14:07.689Z,-0.48
2023-03-16T23:19:31.202Z,-0.54
2023-03-16T23:24:37.216Z,-0.60
2023-03-16T23:29:42.058Z,-0.63
2023-03-16T23:34:46.743Z,-0.69
2023-03-16T23:39:51.665Z,-0.75
2023-03-16T23:44:56.345Z,-0.79
2023-03-16T23:50:00.738Z,-0.78
2023-03-16T23:55:10.712Z,-0.78
